Time;durP1;ratioP1;P1;durP2;ratioP2;P2;SDS_P1;SDS_P2;PMS_P1;PMS_P2;Temp;Humidity;BMP_temperature;BMP_pressure;BME280_temperature;BME280_humidity;BME280_pressure;Samples;Min_cycle;Max_cycle;Signal;HPM_P1;HPM_P2
2022/11/23 00:00:25;;;;;;;14.85;5.65;;;;;;;2.58;100.00;94254.38;5052855;28;20071;-76
2022/11/23 00:03:14;;;;;;;14.07;5.72;;;;;;;2.57;100.00;94252.03;5040232;28;20128;-76
2022/11/23 00:05:40;;;;;;;13.55;6.00;;;;;;;2.53;100.00;94246.59;5046692;28;20120;-75
2022/11/23 00:08:06;;;;;;;18.35;6.63;;;;;;;2.51;100.00;94253.81;5052506;28;20162;-76
2022/11/23 00:10:31;;;;;;;14.82;6.18;;;;;;;2.49;100.00;94261.09;5042674;28;20091;-76
2022/11/23 00:12:57;;;;;;;17.25;6.15;;;;;;;2.49;100.00;94253.28;5041781;28;20049;-75
2022/11/23 00:15:22;;;;;;;18.55;6.03;;;;;;;2.52;100.00;94249.44;5047015;28;20098;-75
2022/11/23 00:17:48;;;;;;;14.35;6.15;;;;;;;2.53;100.00;94251.78;5041245;28;20658;-75
2022/11/23 00:20:14;;;;;;;18.23;6.78;;;;;;;2.56;100.00;94246.06;5043358;28;20567;-75
2022/11/23 00:22:39;;;;;;;13.77;5.97;;;;;;;2.56;100.00;94246.06;5051410;28;20457;-75
2022/11/23 00:25:05;;;;;;;17.25;6.45;;;;;;;2.54;100.00;94253.34;5051494;28;20063;-76
2022/11/23 00:27:31;;;;;;;22.95;6.45;;;;;;;2.60;100.00;94257.53;5046152;28;20083;-75
2022/11/23 00:29:56;;;;;;;13.95;6.32;;;;;;;2.64;100.00;94257.03;5051519;28;20041;-75
2022/11/23 00:32:22;;;;;;;13.73;6.03;;;;;;;2.63;100.00;94255.47;5050340;28;20044;-75
2022/11/23 00:34:47;;;;;;;17.00;6.30;;;;;;;2.58;100.00;94258.81;5043585;28;20049;-76
2022/11/23 00:37:13;;;;;;;13.57;6.07;;;;;;;2.52;100.00;94255.41;5051643;28;20103;-75
2022/11/23 00:39:38;;;;;;;19.35;6.40;;;;;;;2.53;100.00;94261.34;5047797;28;20044;-75
2022/11/23 00:42:04;;;;;;;14.93;5.97;;;;;;;2.54;100.00;94258.53;5048976;28;20179;-76
2022/11/23 00:44:29;;;;;;;12.63;5.90;;;;;;;2.57;100.00;94260.63;5037661;28;20045;-76
2022/11/23 00:46:55;;;;;;;18.67;6.15;;;;;;;2.55;100.00;94254.88;5047681;28;20083;-76
2022/11/23 00:49:21;;;;;;;16.70;6.35;;;;;;;2.53;100.00;94256.16;5035726;28;20122;-76
2022/11/23 00:51:46;;;;;;;13.20;6.28;;;;;;;2.50;100.00;94252.28;5050894;28;20044;-76
2022/11/23 00:54:12;;;;;;;17.15;6.20;;;;;;;2.53;100.00;94248.38;5051062;28;20041;-76
2022/11/23 00:56:38;;;;;;;16.58;6.32;;;;;;;2.56;100.00;94245.31;5040739;28;20049;-76
2022/11/23 00:59:03;;;;;;;23.23;6.25;;;;;;;2.51;100.00;94247.84;5045335;28;20044;-76
2022/11/23 01:01:38;;;;;;;14.40;6.13;;;;;;;2.52;100.00;94250.19;5049920;28;20041;-76
2022/11/23 01:04:04;;;;;;;;;;;;;;;2.51;100.00;94251.22;5043907;28;20048;-76
2022/11/23 01:06:34;;;;;;;12.98;6.18;;;;;;;2.51;100.00;94248.63;5039969;28;19928;-76
2022/11/23 01:09:04;;;;;;;15.02;6.05;;;;;;;2.51;100.00;94253.03;5051235;28;20098;-76
2022/11/23 01:11:31;;;;;;;15.65;6.03;;;;;;;2.47;100.00;94252.78;5037575;28;20049;-75
2022/11/23 01:13:57;;;;;;;11.55;5.53;;;;;;;2.47;100.00;94257.97;5045513;28;20034;-76
2022/11/23 01:16:31;;;;;;;13.60;6.32;;;;;;;2.45;100.00;94254.81;5036981;28;20048;-76
2022/11/23 01:18:59;;;;;;;24.70;6.03;;;;;;;2.45;100.00;94260.03;5047141;28;20491;-76
2022/11/23 01:21:27;;;;;;;12.95;5.80;;;;;;;2.44;100.00;94268.81;5050854;28;20051;-76
2022/11/23 01:23:53;;;;;;;15.68;5.68;;;;;;;2.38;100.00;94264.63;5049245;28;20040;-76
2022/11/23 01:26:19;;;;;;;12.63;6.22;;;;;;;2.34;100.00;94268.75;5040578;28;20041;-75
2022/11/23 01:28:44;;;;;;;17.48;5.95;;;;;;;2.33;100.00;94265.38;5047334;28;20053;-75
2022/11/23 01:31:16;;;;;;;18.25;6.68;;;;;;;2.34;100.00;94268.75;5050749;28;20068;-76
2022/11/23 01:33:41;;;;;;;19.40;6.30;;;;;;;2.29;100.00;94266.13;5037470;28;20072;-76
2022/11/23 01:36:11;;;;;;;12.93;5.55;;;;;;;2.36;100.00;94272.69;5041715;28;20069;-77
2022/11/23 01:38:37;;;;;;;14.85;5.80;;;;;;;2.32;100.00;94274.19;5048817;28;20565;-75
2022/11/23 01:41:04;;;;;;;13.07;6.03;;;;;;;2.32;100.00;94265.63;5043024;28;20041;-75
2022/11/23 01:43:30;;;;;;;16.52;6.03;;;;;;;2.32;100.00;94265.63;5050132;28;20041;-75
2022/11/23 01:45:57;;;;;;;14.75;5.28;;;;;;;2.31;100.00;94272.63;5048594;28;20638;-75
2022/11/23 01:48:28;;;;;;;14.85;5.28;;;;;;;2.33;100.00;94278.38;5043817;28;20088;-75
2022/11/23 01:50:56;;;;;;;12.35;5.50;;;;;;;2.36;100.00;94277.09;5030900;28;20057;-76
2022/11/23 01:53:21;;;;;;;16.27;5.78;;;;;;;2.30;100.00;94275.47;5049425;28;20041;-76
2022/11/23 01:55:48;;;;;;;17.90;5.82;;;;;;;2.15;100.00;94271.72;5046509;28;20068;-77
2022/11/23 01:58:19;;;;;;;15.85;5.63;;;;;;;2.22;100.00;94287.88;5030632;28;20052;-77
2022/11/23 02:00:45;;;;;;;14.90;5.72;;;;;;;2.21;100.00;94286.31;5049459;28;20049;-75
2022/11/23 02:03:12;;;;;;;13.20;5.80;;;;;;;2.14;100.00;94280.56;5043882;28;20044;-76
2022/11/23 02:05:43;;;;;;;15.48;5.35;;;;;;;2.14;100.00;94285.75;5048301;28;20049;-77
2022/11/23 02:08:10;;;;;;;15.40;5.25;;;;;;;2.19;100.00;94285.78;5048415;28;20049;-76
2022/11/23 02:10:36;;;;;;;16.50;5.53;;;;;;;2.16;100.00;94288.84;5045669;28;20048;-77
2022/11/23 02:13:05;;;;;;;14.70;5.30;;;;;;;2.13;100.00;94289.34;5049273;28;20044;-76
2022/11/23 02:15:32;;;;;;;12.05;4.90;;;;;;;2.12;100.00;94292.97;5048064;28;20045;-76
2022/11/23 02:17:59;;;;;;;17.00;5.72;;;;;;;2.15;100.00;94286.50;5035692;28;20042;-77
2022/11/23 02:20:25;;;;;;;12.25;4.72;;;;;;;2.13;100.00;94284.16;5036393;28;20053;-77
2022/11/23 02:23:18;;;;;;;10.90;4.57;;;;;;;2.12;100.00;94282.59;5047108;28;20152;-77
2022/11/23 02:25:44;;;;;;;13.38;4.72;;;;;;;2.08;100.00;94287.50;5046068;28;20041;-77
2022/11/23 02:28:36;;;;;;;15.48;5.10;;;;;;;2.06;100.00;94284.34;5041529;28;20423;-77
2022/11/23 02:31:02;;;;;;;11.25;5.05;;;;;;;2.06;100.00;94278.38;5049294;28;20037;-76
2022/11/23 02:33:28;;;;;;;14.80;5.25;;;;;;;2.09;100.00;94277.91;5049234;28;20052;-77
2022/11/23 02:35:57;;;;;;;9.93;5.10;;;;;;;2.05;100.00;94280.22;5040993;28;20040;-77
2022/11/23 02:38:25;;;;;;;13.45;5.13;;;;;;;1.85;100.00;94273.03;5040819;28;20037;-77
2022/11/23 02:40:50;;;;;;;11.55;4.55;;;;;;;1.98;100.00;94282.19;5028733;28;20041;-77
2022/11/23 02:43:16;;;;;;;12.93;5.22;;;;;;;1.99;100.00;94277.81;5044408;28;20052;-77
2022/11/23 02:46:02;;;;;;;12.05;4.78;;;;;;;2.07;100.00;94279.97;5046988;28;20036;-76
2022/11/23 02:48:27;;;;;;;14.93;4.95;;;;;;;2.02;100.00;94272.91;5031698;28;20383;-77
2022/11/23 02:50:53;;;;;;;11.32;4.93;;;;;;;2.00;100.00;94279.38;5045161;28;20041;-76
2022/11/23 02:53:18;;;;;;;13.65;4.63;;;;;;;1.95;100.00;94276.72;5044093;28;20045;-76
2022/11/23 02:55:44;;;;;;;10.82;4.60;;;;;;;1.78;100.00;94277.63;5042799;28;20046;-76
2022/11/23 02:58:10;;;;;;;11.90;4.38;;;;;;;1.69;100.00;94279.06;5051908;28;20048;-77
2022/11/23 03:00:36;;;;;;;9.23;4.25;;;;;;;1.62;100.00;94281.06;5040820;28;20487;-77
2022/11/23 03:03:02;;;;;;;17.25;4.53;;;;;;;1.52;100.00;94279.94;5034033;28;20048;-76
2022/11/23 03:05:29;;;;;;;9.25;4.55;;;;;;;1.45;100.00;94287.13;5052946;28;20246;-77
2022/11/23 03:07:54;;;;;;;8.77;4.35;;;;;;;1.39;100.00;94290.66;5043216;28;20119;-76
2022/11/23 03:10:20;;;;;;;10.27;4.18;;;;;;;1.34;100.00;94293.19;5052961;28;20037;-77
2022/11/23 03:12:46;;;;;;;7.63;4.25;;;;;;;1.23;100.00;94286.31;5052966;28;20048;-77
2022/11/23 03:15:12;;;;;;;9.30;4.40;;;;;;;1.16;100.00;94287.25;5047289;28;20045;-76
2022/11/23 03:17:38;;;;;;;10.95;4.75;;;;;;;1.16;100.00;94292.44;5050277;28;20048;-77
2022/11/23 03:20:04;;;;;;;11.95;4.32;;;;;;;1.12;100.00;94291.38;5053285;28;20060;-77
2022/11/23 03:22:29;;;;;;;11.68;4.85;;;;;;;1.07;100.00;94288.72;5040632;28;20044;-77
2022/11/23 03:24:56;;;;;;;11.10;4.15;;;;;;;1.06;100.00;94292.31;5049644;28;20594;-77
2022/11/23 03:27:22;;;;;;;8.82;4.28;;;;;;;0.99;100.00;94286.53;5050480;28;20099;-77
2022/11/23 03:29:47;;;;;;;12.15;4.03;;;;;;;0.96;100.00;94297.38;5052050;28;20037;-77
2022/11/23 03:32:13;;;;;;;8.52;4.32;;;;;;;0.93;100.00;94290.06;5035745;28;20847;-76
2022/11/23 03:34:39;;;;;;;11.75;4.05;;;;;;;0.81;100.00;94293.53;5047579;28;20069;-77
2022/11/23 03:37:04;;;;;;;8.80;3.97;;;;;;;0.77;100.00;94289.84;5052544;28;21115;-77
2022/11/23 03:39:30;;;;;;;14.25;4.00;;;;;;;0.68;100.00;94291.28;5047226;28;20067;-75
2022/11/23 03:41:55;;;;;;;8.93;3.92;;;;;;;0.71;100.00;94290.03;5051589;28;20051;-76
2022/11/23 03:44:21;;;;;;;11.25;3.90;;;;;;;0.69;100.00;94278.09;5046288;28;20045;-76
2022/11/23 03:46:46;;;;;;;19.02;4.40;;;;;;;0.65;100.00;94284.00;5037405;28;20045;-76
2022/11/23 03:49:12;;;;;;;8.20;3.80;;;;;;;0.57;100.00;94281.78;5045075;28;20132;-77
2022/11/23 03:51:37;;;;;;;9.65;4.00;;;;;;;0.44;100.00;94291.44;5052351;28;20422;-76
2022/11/23 03:54:03;;;;;;;9.40;3.72;;;;;;;0.39;100.00;94290.56;5046730;28;20041;-76
2022/11/23 03:56:28;;;;;;;8.77;4.28;;;;;;;0.43;100.00;94279.53;5049501;28;20041;-76
2022/11/23 03:58:54;;;;;;;9.13;3.92;;;;;;;0.39;100.00;94272.47;5046131;28;20033;-76
2022/11/23 04:01:20;;;;;;;7.88;3.83;;;;;;;0.30;100.00;94280.63;5046147;28;20049;-76
2022/11/23 04:03:46;;;;;;;12.05;4.30;;;;;;;0.28;100.00;94271.53;5052353;28;20402;-76
2022/11/23 04:06:11;;;;;;;9.77;3.97;;;;;;;0.22;100.00;94282.81;5051009;28;20041;-76
2022/11/23 04:08:37;;;;;;;9.43;3.88;;;;;;;0.22;100.00;94277.66;5044267;28;20056;-76
2022/11/23 04:11:02;;;;;;;8.82;3.67;;;;;;;0.13;100.00;94278.03;5052414;28;20068;-76
2022/11/23 04:13:28;;;;;;;13.00;4.00;;;;;;;0.11;100.00;94277.47;5050619;28;20041;-76
2022/11/23 04:15:53;;;;;;;8.10;3.28;;;;;;;0.07;100.00;94276.38;5036575;28;20048;-76
2022/11/23 04:18:19;;;;;;;12.00;3.58;;;;;;;-0.01;100.00;94274.16;5043085;28;20049;-76
2022/11/23 04:20:45;;;;;;;11.20;4.20;;;;;;;-0.05;100.00;94268.66;5042306;28;20045;-76
2022/11/23 04:23:10;;;;;;;7.70;4.03;;;;;;;-0.06;100.00;94271.47;5044418;28;20551;-76
2022/11/23 04:25:36;;;;;;;6.90;3.33;;;;;;;-0.11;100.00;94274.00;5050113;28;20037;-76
2022/11/23 04:28:01;;;;;;;6.40;3.40;;;;;;;-0.14;100.00;94279.59;5051720;28;20032;-76
2022/11/23 04:30:27;;;;;;;10.73;3.45;;;;;;;-0.16;100.00;94276.47;5047414;28;20056;-76
2022/11/23 04:32:52;;;;;;;7.07;3.63;;;;;;;-0.18;100.00;94280.06;5038887;28;20648;-76
2022/11/23 04:35:18;;;;;;;5.82;3.03;;;;;;;-0.22;100.00;94278.19;5049883;28;20044;-76
2022/11/23 04:37:44;;;;;;;6.25;3.53;;;;;;;-0.24;100.00;94270.66;5048550;28;20388;-77
2022/11/23 04:40:10;;;;;;;7.53;3.50;;;;;;;-0.24;100.00;94278.44;5037776;28;20056;-77
2022/11/23 04:42:35;;;;;;;5.82;3.13;;;;;;;-0.23;100.00;94281.78;5047192;28;20045;-77
2022/11/23 04:45:01;;;;;;;8.23;3.60;;;;;;;-0.26;100.00;94277.88;5047551;28;20037;-75
2022/11/23 04:47:27;;;;;;;13.75;3.92;;;;;;;-0.27;100.00;94276.31;5046503;28;20048;-76
2022/11/23 04:49:52;;;;;;;11.95;3.22;;;;;;;-0.23;100.00;94285.19;5051622;28;20044;-76
2022/11/23 04:52:18;;;;;;;9.57;3.53;;;;;;;-0.19;100.00;94277.72;5046812;28;20510;-76
2022/11/23 04:54:43;;;;;;;10.55;3.53;;;;;;;-0.19;100.00;94275.94;5050162;28;20044;-78
2022/11/23 04:57:09;;;;;;;7.10;3.03;;;;;;;-0.13;100.00;94276.00;5047186;28;20133;-76
2022/11/23 04:59:35;;;;;;;9.40;3.63;;;;;;;-0.05;100.00;94273.06;5049646;28;20048;-77
2022/11/23 05:02:00;;;;;;;6.43;3.38;;;;;;;-0.02;100.00;94268.19;5048853;28;20064;-78
2022/11/23 05:04:26;;;;;;;10.80;3.20;;;;;;;-0.04;100.00;94269.47;5047058;28;20084;-76
2022/11/23 05:06:52;;;;;;;6.45;3.60;;;;;;;-0.03;100.00;94265.84;5036601;28;20067;-78
2022/11/23 05:09:17;;;;;;;8.75;3.60;;;;;;;-0.02;100.00;94262.25;5032390;28;20103;-76
2022/11/23 05:11:43;;;;;;;8.55;3.42;;;;;;;0.01;100.00;94259.19;5036502;28;20037;-77
2022/11/23 05:14:08;;;;;;;13.57;3.90;;;;;;;0.04;100.00;94256.13;5038914;28;20049;-78
2022/11/23 05:16:34;;;;;;;7.78;3.38;;;;;;;0.07;100.00;94255.69;5043044;28;20132;-77
2022/11/23 05:19:00;;;;;;;6.68;3.50;;;;;;;0.12;100.00;94258.34;5044411;28;20041;-77
2022/11/23 05:21:26;;;;;;;12.25;3.40;;;;;;;0.13;100.00;94264.28;5049096;28;20045;-77
2022/11/23 05:23:51;;;;;;;7.05;3.35;;;;;;;0.13;100.00;94265.09;5040924;28;20119;-77
2022/11/23 05:26:17;;;;;;;8.82;3.35;;;;;;;0.16;100.00;94253.50;5050875;28;20064;-78
2022/11/23 05:28:42;;;;;;;10.80;4.05;;;;;;;0.25;100.00;94261.66;5044534;28;20037;-78
2022/11/23 05:31:08;;;;;;;13.88;3.70;;;;;;;0.26;100.00;94264.00;5045684;28;20065;-77
2022/11/23 05:33:34;;;;;;;9.07;4.18;;;;;;;0.31;100.00;94255.53;5050760;28;20044;-77
2022/11/23 05:36:00;;;;;;;10.18;3.75;;;;;;;0.33;100.00;94253.47;5050161;28;20044;-77
2022/11/23 05:38:25;;;;;;;9.85;3.55;;;;;;;0.33;100.00;94253.47;5046116;28;20045;-78
2022/11/23 05:40:51;;;;;;;6.82;3.60;;;;;;;0.35;100.00;94256.63;5046026;28;20044;-77
2022/11/23 05:43:17;;;;;;;8.88;3.58;;;;;;;0.28;100.00;94253.41;5050392;28;20045;-77
2022/11/23 05:45:43;;;;;;;7.18;3.70;;;;;;;0.29;100.00;94257.56;5044239;28;20528;-76
2022/11/23 05:48:08;;;;;;;7.40;3.45;;;;;;;0.36;100.00;94258.19;5044344;28;20053;-75
2022/11/23 05:50:34;;;;;;;10.68;3.50;;;;;;;0.39;100.00;94252.56;5050796;28;20072;-75
2022/11/23 05:52:59;;;;;;;7.90;3.63;;;;;;;0.41;100.00;94260.84;5050497;28;20502;-76
2022/11/23 05:55:25;;;;;;;9.50;3.90;;;;;;;0.39;100.00;94257.72;5037786;28;20092;-75
2022/11/23 05:57:51;;;;;;;7.25;3.50;;;;;;;0.32;100.00;94254.50;5050072;28;20041;-76
2022/11/23 06:00:17;;;;;;;16.73;3.80;;;;;;;0.37;100.00;94254.56;5049647;28;20052;-76
2022/11/23 06:02:43;;;;;;;11.20;3.83;;;;;;;0.37;100.00;94257.16;5043604;28;20057;-77
2022/11/23 06:05:09;;;;;;;8.30;3.30;;;;;;;0.38;100.00;94253.56;5048716;28;20063;-76
2022/11/23 06:07:36;;;;;;;7.38;3.03;;;;;;;0.38;100.00;94253.56;5048851;28;20491;-75
2022/11/23 06:10:04;;;;;;;8.68;3.40;;;;;;;0.42;100.00;94253.88;5045861;28;20045;-76
2022/11/23 06:12:29;;;;;;;10.75;3.50;;;;;;;0.43;100.00;94252.84;5049383;28;20049;-76
2022/11/23 06:14:55;;;;;;;7.47;3.22;;;;;;;0.48;100.00;94251.13;5046698;28;20049;-77
2022/11/23 06:17:21;;;;;;;15.93;3.75;;;;;;;0.44;100.00;94250.03;5045997;28;20053;-76
2022/11/23 06:19:47;;;;;;;6.40;2.97;;;;;;;0.49;100.00;94252.69;5049845;28;20048;-76
2022/11/23 06:22:14;;;;;;;7.28;3.30;;;;;;;0.46;100.00;94258.34;5042924;28;20466;-77
2022/11/23 06:24:40;;;;;;;12.55;3.42;;;;;;;0.45;100.00;94261.94;5042267;28;20037;-74
2022/11/23 06:27:06;;;;;;;8.02;3.33;;;;;;;0.46;100.00;94253.19;5036937;28;20894;-76
2022/11/23 06:29:31;;;;;;;7.82;3.50;;;;;;;0.50;100.00;94254.28;5039367;28;20044;-77
2022/11/23 06:31:57;;;;;;;8.48;2.88;;;;;;;0.56;100.00;94256.91;5042704;28;20120;-76
2022/11/23 06:34:22;;;;;;;8.80;3.60;;;;;;;0.56;100.00;94255.13;5048733;28;20378;-76
2022/11/23 06:36:48;;;;;;;10.70;3.63;;;;;;;0.48;100.00;94261.47;5035904;28;20090;-75
2022/11/23 06:39:14;;;;;;;8.02;3.45;;;;;;;0.48;100.00;94261.47;5047566;28;20112;-73
2022/11/23 06:41:39;;;;;;;7.90;3.17;;;;;;;0.47;100.00;94259.91;5043049;28;20083;-74
2022/11/23 06:44:06;;;;;;;8.18;3.38;;;;;;;0.54;100.00;94253.78;5041901;28;20072;-76
2022/11/23 06:46:32;;;;;;;9.50;3.60;;;;;;;0.60;100.00;94263.19;5045332;28;20124;-75
2022/11/23 06:48:57;;;;;;;6.47;3.30;;;;;;;0.65;100.00;94271.81;5051338;28;20410;-75
2022/11/23 06:51:23;;;;;;;16.67;4.95;;;;;;;0.63;100.00;94267.91;5063698;28;20461;-76
2022/11/23 06:53:49;;;;;;;7.13;3.13;;;;;;;0.74;100.00;94279.97;5037519;28;20120;-74
2022/11/23 06:56:14;;;;;;;7.60;3.65;;;;;;;0.78;100.00;94275.88;5037899;28;20499;-74
2022/11/23 06:58:40;;;;;;;11.02;3.72;;;;;;;0.81;100.00;94275.41;5041790;28;20037;-76
2022/11/23 07:01:07;;;;;;;8.13;4.05;;;;;;;0.82;100.00;94277.00;5046816;28;20041;-75
2022/11/23 07:03:34;;;;;;;10.13;4.45;;;;;;;0.86;100.00;94278.09;5038232;28;20060;-76
2022/11/23 07:06:06;;;;;;;15.98;4.57;;;;;;;0.89;100.00;94281.19;5037277;28;20127;-77
2022/11/23 07:08:33;;;;;;;10.27;3.90;;;;;;;0.96;100.00;94282.63;5044651;28;20069;-75
2022/11/23 07:11:04;;;;;;;7.93;3.90;;;;;;;1.04;100.00;94284.00;5030665;28;20042;-75
2022/11/23 07:13:30;;;;;;;11.43;3.78;;;;;;;1.13;100.00;94277.38;5033882;28;20125;-75
2022/11/23 07:15:57;;;;;;;7.32;3.63;;;;;;;1.14;100.00;94289.31;5046024;28;20124;-75
2022/11/23 07:18:24;;;;;;;8.98;3.70;;;;;;;1.18;100.00;94280.03;5029892;28;20041;-75
2022/11/23 07:20:49;;;;;;;11.43;3.95;;;;;;;1.20;100.00;94287.56;5035877;28;20037;-74
2022/11/23 07:23:15;;;;;;;12.80;4.20;;;;;;;1.26;100.00;94296.19;5049444;28;20033;-75
2022/11/23 07:25:41;;;;;;;15.90;4.20;;;;;;;1.33;100.00;94296.81;5038050;28;20045;-75
2022/11/23 07:28:07;;;;;;;13.70;4.70;;;;;;;1.34;100.00;94293.97;5038178;28;20091;-75
2022/11/23 07:30:34;;;;;;;14.63;4.18;;;;;;;1.41;100.00;94303.38;5049088;28;20072;-75
2022/11/23 07:33:05;;;;;;;13.10;5.45;;;;;;;1.45;100.00;94294.88;5042173;28;20052;-75
2022/11/23 07:35:34;;;;;;;11.55;5.38;;;;;;;1.44;100.00;94303.69;5044372;28;20071;-75
2022/11/23 07:38:01;;;;;;;13.95;5.93;;;;;;;1.53;100.00;94312.59;5041507;28;20513;-74
2022/11/23 07:40:26;;;;;;;13.75;5.60;;;;;;;1.62;100.00;94305.16;5038551;28;20037;-74
2022/11/23 07:42:57;;;;;;;9.85;4.82;;;;;;;1.71;100.00;94313.31;5037265;28;20115;-75
2022/11/23 07:45:23;;;;;;;10.77;4.70;;;;;;;1.71;100.00;94318.50;5048611;28;20131;-75
2022/11/23 07:47:57;;;;;;;16.45;5.10;;;;;;;1.83;100.00;94316.56;5038100;28;20065;-75
2022/11/23 07:50:22;;;;;;;18.05;5.45;;;;;;;1.95;100.00;94318.25;5047593;28;20071;-75
2022/11/23 07:52:48;;;;;;;12.57;5.45;;;;;;;2.09;100.00;94319.41;5052942;28;20045;-75
2022/11/23 07:55:13;;;;;;;13.23;5.25;;;;;;;2.17;100.00;94326.78;5042207;28;20048;-74
2022/11/23 07:57:39;;;;;;;13.90;5.65;;;;;;;2.34;100.00;94325.88;5049095;28;20040;-75
2022/11/23 08:00:05;;;;;;;13.60;5.30;;;;;;;2.49;100.00;94327.84;5047460;28;20037;-76
2022/11/23 08:02:31;;;;;;;14.85;5.43;;;;;;;2.53;100.00;94329.69;5038979;28;20033;-75
2022/11/23 08:04:56;;;;;;;13.93;4.88;;;;;;;2.71;100.00;94335.53;5050453;28;20094;-75
2022/11/23 08:07:22;;;;;;;13.25;4.80;;;;;;;2.76;100.00;94327.78;5051569;28;20037;-74
2022/11/23 08:09:47;;;;;;;13.93;5.07;;;;;;;2.82;100.00;94334.59;5043490;28;20056;-75
2022/11/23 08:12:13;;;;;;;11.93;4.82;;;;;;;2.86;100.00;94335.66;5053676;28;20120;-75
2022/11/23 08:14:39;;;;;;;12.82;4.90;;;;;;;2.89;100.00;94327.34;5043098;28;20045;-74
2022/11/23 08:17:04;;;;;;;11.20;4.80;;;;;;;3.05;100.00;94324.84;5043182;28;20103;-76
2022/11/23 08:19:30;;;;;;;15.93;5.07;;;;;;;3.13;100.00;94326.97;5049008;28;20037;-75
2022/11/23 08:21:55;;;;;;;16.00;4.60;;;;;;;3.18;100.00;94332.22;5050955;28;20041;-75
2022/11/23 08:24:21;;;;;;;8.43;4.10;;;;;;;3.26;100.00;94329.16;5050494;28;20090;-75
2022/11/23 08:26:47;;;;;;;12.68;4.40;;;;;;;3.38;100.00;94328.16;5046886;28;20048;-76
2022/11/23 08:29:13;;;;;;;12.60;4.03;;;;;;;3.39;100.00;94330.50;5050935;28;20041;-76
2022/11/23 08:31:38;;;;;;;10.35;3.60;;;;;;;3.52;100.00;94324.06;5049100;28;20049;-76
2022/11/23 08:34:04;;;;;;;10.48;3.72;;;;;;;3.60;100.00;94318.34;5043468;28;20063;-76
2022/11/23 08:36:30;;;;;;;17.20;4.60;;;;;;;3.70;100.00;94319.44;5046563;28;20049;-75
2022/11/23 08:38:55;;;;;;;6.35;3.50;;;;;;;3.77;100.00;94325.19;5048642;28;20513;-76
2022/11/23 08:41:22;;;;;;;15.88;4.15;;;;;;;3.80;100.00;94314.28;5051395;28;20109;-76
2022/11/23 08:43:48;;;;;;;16.38;4.95;;;;;;;3.98;100.00;94326.06;5038682;28;20037;-75
2022/11/23 08:46:14;;;;;;;15.82;4.07;;;;;;;4.09;100.00;94321.66;5050587;28;20041;-76
2022/11/23 08:48:40;;;;;;;14.85;4.07;;;;;;;3.94;100.00;94323.16;5032668;28;20065;-78
2022/11/23 08:51:08;;;;;;;8.95;3.88;;;;;;;4.05;100.00;94315.38;5041604;28;20049;-75
2022/11/23 08:53:34;;;;;;;13.10;3.85;;;;;;;4.17;100.00;94326.34;5050687;28;20052;-75
2022/11/23 08:56:01;;;;;;;12.38;3.78;;;;;;;4.40;100.00;94322.47;5037782;28;20033;-74
2022/11/23 08:58:27;;;;;;;9.90;3.13;;;;;;;4.33;100.00;94333.13;5049095;28;20551;-75
2022/11/23 09:00:52;;;;;;;13.27;3.30;;;;;;;4.31;100.00;94335.22;5047690;28;20049;-76
2022/11/23 09:03:18;;;;;;;9.95;2.60;;;;;;;4.20;100.00;94333.66;5044395;28;20123;-75
2022/11/23 09:05:44;;;;;;;13.77;2.83;;;;;;;4.23;100.00;94333.13;5049296;28;20041;-76
2022/11/23 09:08:10;;;;;;;11.27;3.40;;;;;;;4.45;100.00;94329.50;5050786;28;20053;-76
2022/11/23 09:10:36;;;;;;;13.90;3.42;;;;;;;4.43;100.00;94326.41;5035748;28;20037;-73
2022/11/23 09:13:02;;;;;;;7.15;2.45;;;;;;;4.48;100.00;94323.78;5050473;28;20167;-74
2022/11/23 09:15:28;;;;;;;9.90;3.30;;;;;;;4.61;100.00;94322.47;5047778;28;20120;-77
2022/11/23 09:17:55;;;;;;;4.10;2.13;;;;;;;4.55;100.00;94324.31;5041039;28;20128;-74
2022/11/23 09:20:21;;;;;;;11.10;3.03;;;;;;;4.54;100.00;94324.56;5049544;28;20068;-74
2022/11/23 09:22:54;;;;;;;8.63;2.95;;;;;;;4.51;100.00;94323.25;5051029;28;20036;-74
2022/11/23 09:25:20;;;;;;;12.35;2.90;;;;;;;4.60;100.00;94321.72;5047275;28;20498;-75
2022/11/23 09:27:47;;;;;;;10.80;2.90;;;;;;;4.61;100.00;94328.50;5030609;28;20100;-75
2022/11/23 09:30:13;;;;;;;8.27;3.08;;;;;;;4.68;100.00;94329.00;5038562;28;20044;-75
2022/11/23 09:32:39;;;;;;;9.38;3.08;;;;;;;4.69;100.00;94322.75;5046208;28;20507;-74
2022/11/23 09:35:05;;;;;;;8.00;3.05;;;;;;;4.76;100.00;94321.72;5044185;28;20071;-74
2022/11/23 09:37:31;;;;;;;6.82;2.75;;;;;;;4.80;100.00;94320.16;5050379;28;20098;-74
2022/11/23 09:39:56;;;;;;;5.82;2.25;;;;;;;4.72;100.00;94318.84;5046934;28;20116;-75
2022/11/23 09:42:55;;;;;;;10.35;2.90;;;;;;;4.78;100.00;94322.22;5036841;28;20132;-73
2022/11/23 09:45:40;;;;;;;8.38;2.42;;;;;;;5.38;100.00;94317.94;5040715;28;20071;-74
2022/11/23 09:48:06;;;;;;;9.48;2.83;;;;;;;6.89;100.00;94318.72;5040126;28;20037;-77
2022/11/23 09:51:17;;;;;;;8.90;2.42;;;;;;;7.96;100.00;94302.94;5039623;28;20624;-76
2022/11/23 09:53:48;;;;;;;13.20;2.92;;;;;;;9.37;100.00;94309.19;4997143;28;20113;-76
2022/11/23 09:56:24;;;;;;;8.85;2.65;;;;;;;9.39;100.00;94299.16;4985315;28;20038;-74
2022/11/23 09:58:54;;;;;;;6.93;2.47;;;;;;;9.56;100.00;94300.44;5022946;28;20391;-74
2022/11/23 10:01:20;;;;;;;11.45;2.75;;;;;;;9.87;100.00;94298.78;5042223;28;20098;-75
2022/11/23 10:03:46;;;;;;;9.45;2.45;;;;;;;9.96;100.00;94305.97;5042911;28;20060;-76
2022/11/23 10:06:21;;;;;;;7.57;2.10;;;;;;;9.93;100.00;94301.28;5031183;28;20388;-75
2022/11/23 10:08:54;;;;;;;6.05;2.33;;;;;;;10.07;100.00;94291.53;5041369;28;20037;-74
2022/11/23 10:11:30;;;;;;;10.02;3.08;;;;;;;9.95;100.00;94293.91;5049729;28;20415;-73
2022/11/23 10:14:14;;;;;;;6.85;2.42;;;;;;;9.64;100.00;94299.75;5039759;28;20045;-73
2022/11/23 10:16:58;;;;;;;6.28;2.08;;;;;;;10.72;100.00;94295.63;5036686;28;20060;-74
2022/11/23 10:19:43;;;;;;;4.18;1.55;;;;;;;11.84;96.59;94290.41;5043771;28;20399;-73
2022/11/23 10:22:28;;;;;;;5.55;1.90;;;;;;;12.07;99.09;94288.47;5044236;28;20041;-74
2022/11/23 10:24:54;;;;;;;6.28;1.75;;;;;;;11.82;100.00;94276.75;5038993;28;20041;-74
2022/11/23 10:27:24;;;;;;;6.60;1.70;;;;;;;8.84;100.00;94279.63;5039847;28;20048;-74
2022/11/23 10:29:51;;;;;;;7.03;1.40;;;;;;;9.71;100.00;94284.38;5048385;28;20041;-74
2022/11/23 10:32:45;;;;;;;5.68;1.42;;;;;;;11.35;100.00;94285.13;5049136;28;20056;-73
2022/11/23 10:35:12;;;;;;;6.35;1.80;;;;;;;8.81;100.00;94280.22;5045394;28;20049;-74
2022/11/23 10:37:39;;;;;;;9.57;1.90;;;;;;;8.19;100.00;94269.06;5038956;28;20562;-74
2022/11/23 10:40:24;;;;;;;7.88;1.80;;;;;;;8.72;100.00;94276.72;5049786;28;20083;-74
2022/11/23 10:43:16;;;;;;;9.85;1.60;;;;;;;11.94;100.00;94261.16;5042623;28;20514;-74
2022/11/23 10:45:41;;;;;;;9.65;1.92;;;;;;;11.66;100.00;94251.91;5033466;28;20037;-74
2022/11/23 10:48:07;;;;;;;3.13;1.60;;;;;;;11.60;100.00;94259.19;5044929;28;20084;-76
2022/11/23 10:50:43;;;;;;;6.70;1.90;;;;;;;9.22;100.00;94262.22;5036540;28;20119;-75
2022/11/23 10:53:25;;;;;;;4.88;1.60;;;;;;;11.53;96.07;94259.63;5041900;28;20052;-75
2022/11/23 10:55:57;;;;;;;3.80;1.42;;;;;;;13.71;100.00;94254.50;5031662;28;20094;-76
2022/11/23 10:58:26;;;;;;;9.60;1.85;;;;;;;12.51;91.06;94256.81;5034290;28;20041;-75
2022/11/23 11:01:06;;;;;;;7.80;1.60;;;;;;;10.78;100.00;94267.34;5036422;28;20052;-76
2022/11/23 11:03:34;;;;;;;9.07;2.65;;;;;;;9.41;99.46;94259.47;5046112;28;20056;-75
2022/11/23 11:06:00;;;;;;;15.63;2.30;;;;;;;10.52;95.12;94265.31;5044066;28;20041;-75
2022/11/23 11:08:32;;;;;;;7.03;1.70;;;;;;;9.16;100.00;94254.41;5045864;28;20120;-75
2022/11/23 11:11:00;;;;;;;8.55;1.80;;;;;;;7.92;100.00;94260.03;5049345;28;20095;-75
2022/11/23 11:13:44;;;;;;;4.10;1.70;;;;;;;7.62;100.00;94257.50;5051897;28;20460;-77
2022/11/23 11:16:21;;;;;;;10.85;1.80;;;;;;;7.83;100.00;94256.47;5040525;28;20095;-75
2022/11/23 11:18:47;;;;;;;5.80;1.50;;;;;;;7.16;100.00;94259.88;5035686;28;20086;-77
2022/11/23 11:21:34;;;;;;;8.63;1.83;;;;;;;7.30;100.00;94255.53;5040775;28;20160;-77
2022/11/23 11:24:12;;;;;;;6.10;1.73;;;;;;;6.93;100.00;94251.72;5053860;28;20041;-78
2022/11/23 11:26:50;;;;;;;3.50;1.25;;;;;;;6.63;100.00;94256.19;5059958;28;20266;-75
2022/11/23 11:29:31;;;;;;;8.18;1.60;;;;;;;6.43;100.00;94264.19;5053919;28;20045;-74
2022/11/23 11:32:04;;;;;;;4.78;1.33;;;;;;;6.48;100.00;94251.06;5035843;28;20041;-76